Time;durP1;ratioP1;P1;durP2;ratioP2;P2;SDS_P1;SDS_P2;PMS_P1;PMS_P2;Temp;Humidity;BMP_temperature;BMP_pressure;BME280_temperature;BME280_humidity;BME280_pressure;Samples;Min_cycle;Max_cycle;Signal;HPM_P1;HPM_P2
2023/06/02 00:01:03;;;;;;;16.53;3.50;;;11.70;99.90;;;;;;5112507;28;20602;-71
2023/06/02 00:03:34;;;;;;;15.30;3.77;;;11.70;99.90;;;;;;5095219;28;20301;-71
2023/06/02 00:06:09;;;;;;;14.97;2.53;;;11.70;99.90;;;;;;5112734;28;20277;-72
2023/06/02 00:08:38;;;;;;;17.43;2.97;;;11.70;99.90;;;;;;5113123;28;20277;-72
2023/06/02 00:11:05;;;;;;;10.47;2.80;;;11.70;99.90;;;;;;5112825;28;20290;-72
2023/06/02 00:13:32;;;;;;;11.40;2.70;;;11.70;99.90;;;;;;5095956;28;20871;-72
2023/06/02 00:15:57;;;;;;;13.37;2.50;;;11.70;99.90;;;;;;5116653;28;20282;-75
2023/06/02 00:18:24;;;;;;;9.87;2.43;;;11.70;99.90;;;;;;5116843;28;20286;-72
2023/06/02 00:20:51;;;;;;;13.90;3.20;;;11.70;99.90;;;;;;5098800;28;20047;-72
2023/06/02 00:23:17;;;;;;;17.00;2.93;;;11.70;99.90;;;;;;5116342;28;20297;-72
2023/06/02 00:25:43;;;;;;;12.57;3.40;;;11.60;99.90;;;;;;5075220;28;20294;-72
2023/06/02 00:28:08;;;;;;;20.80;4.37;;;11.60;99.90;;;;;;5075789;28;20283;-72
2023/06/02 00:30:35;;;;;;;10.07;2.67;;;11.60;99.90;;;;;;5075901;28;20404;-72
2023/06/02 00:33:01;;;;;;;13.93;2.33;;;11.60;99.90;;;;;;5074555;28;20045;-72
2023/06/02 00:35:27;;;;;;;18.97;3.47;;;11.60;99.90;;;;;;5075837;28;20293;-72
2023/06/02 00:37:54;;;;;;;12.70;3.00;;;11.60;99.90;;;;;;5075764;28;20358;-71
2023/06/02 00:40:22;;;;;;;13.13;3.20;;;11.60;99.90;;;;;;5075556;28;21187;-72
2023/06/02 00:42:48;;;;;;;18.37;3.60;;;11.60;99.90;;;;;;5075611;28;20322;-72
2023/06/02 00:45:14;;;;;;;13.63;3.13;;;11.60;99.90;;;;;;5074187;28;20771;-72
2023/06/02 00:47:40;;;;;;;12.33;2.83;;;11.60;99.90;;;;;;5075949;28;20417;-72
2023/06/02 00:50:07;;;;;;;17.30;3.37;;;11.60;99.90;;;;;;5075281;28;20412;-72
2023/06/02 00:52:33;;;;;;;13.27;3.80;;;11.60;99.90;;;;;;5075686;28;20059;-72
2023/06/02 00:55:02;;;;;;;13.07;3.40;;;11.60;99.90;;;;;;5074267;28;20283;-72
2023/06/02 00:57:28;;;;;;;15.63;3.00;;;11.60;99.90;;;;;;5075449;28;20283;-72
2023/06/02 00:59:57;;;;;;;12.20;2.83;;;11.60;99.90;;;;;;5075751;28;20279;-72
2023/06/02 01:02:24;;;;;;;11.63;3.70;;;11.60;99.90;;;;;;5073813;28;20389;-72
2023/06/02 01:04:51;;;;;;;16.13;2.53;;;11.60;99.90;;;;;;5075311;28;20290;-72
2023/06/02 01:07:23;;;;;;;13.53;3.23;;;11.60;99.90;;;;;;5075001;28;20295;-72
2023/06/02 01:09:55;;;;;;;22.50;3.50;;;11.60;99.90;;;;;;5075493;28;20306;-72
2023/06/02 01:12:22;;;;;;;12.17;2.77;;;11.70;99.90;;;;;;5074874;28;20275;-72
2023/06/02 01:14:48;;;;;;;13.30;3.17;;;11.70;99.90;;;;;;5075282;28;20699;-72
2023/06/02 01:17:15;;;;;;;13.70;2.73;;;11.70;99.90;;;;;;5056875;28;20378;-72
2023/06/02 01:19:42;;;;;;;15.73;2.57;;;11.60;99.90;;;;;;5075234;28;20142;-72
2023/06/02 01:22:10;;;;;;;16.03;2.93;;;11.60;99.90;;;;;;5074607;28;20723;-73
2023/06/02 01:24:39;;;;;;;8.57;2.80;;;11.60;99.90;;;;;;5094958;28;20297;-72
2023/06/02 01:27:11;;;;;;;10.83;2.60;;;11.50;99.90;;;;;;5097437;28;20281;-74
2023/06/02 01:29:38;;;;;;;13.87;3.10;;;11.50;99.90;;;;;;5115473;28;20784;-72
2023/06/02 01:32:30;;;;;;;12.67;2.40;;;11.50;99.90;;;;;;5097340;28;20311;-72
2023/06/02 01:34:59;;;;;;;22.63;4.33;;;11.40;99.90;;;;;;5115464;28;20300;-72
2023/06/02 01:37:28;;;;;;;9.03;2.47;;;11.40;99.90;;;;;;5080264;28;20319;-73
2023/06/02 01:39:54;;;;;;;14.20;3.27;;;11.40;99.90;;;;;;5114961;28;20346;-72
2023/06/02 01:42:21;;;;;;;17.20;3.70;;;11.40;99.90;;;;;;5114635;28;20382;-72
2023/06/02 01:44:48;;;;;;;14.13;3.73;;;11.40;99.90;;;;;;5097235;28;20372;-72
2023/06/02 01:47:14;;;;;;;14.07;2.93;;;11.30;99.90;;;;;;5096881;28;20293;-73
2023/06/02 01:49:40;;;;;;;22.20;4.53;;;11.40;99.90;;;;;;5115067;28;20289;-72
2023/06/02 01:52:06;;;;;;;18.83;3.07;;;11.40;99.90;;;;;;5115112;28;20288;-72
2023/06/02 01:54:32;;;;;;;12.70;3.60;;;11.40;99.90;;;;;;5114582;28;20518;-72
2023/06/02 01:56:58;;;;;;;16.70;3.13;;;11.40;99.90;;;;;;5114514;28;20634;-72
2023/06/02 01:59:25;;;;;;;15.23;2.93;;;11.40;99.90;;;;;;5114578;28;20285;-72
2023/06/02 02:01:51;;;;;;;15.83;2.77;;;11.50;99.90;;;;;;5115082;28;20048;-72
2023/06/02 02:04:17;;;;;;;12.07;2.73;;;11.50;99.90;;;;;;5096219;28;20300;-72
2023/06/02 02:06:49;;;;;;;11.70;2.53;;;11.50;99.90;;;;;;5096757;28;20130;-72
2023/06/02 02:09:15;;;;;;;14.47;2.70;;;11.50;99.90;;;;;;5114418;28;20492;-72
2023/06/02 02:11:41;;;;;;;17.17;3.10;;;11.50;99.90;;;;;;5114627;28;20309;-72
2023/06/02 02:14:06;;;;;;;19.33;3.77;;;11.50;99.90;;;;;;5114530;28;20382;-72
2023/06/02 02:16:32;;;;;;;14.47;3.00;;;11.50;99.90;;;;;;5114242;28;20054;-73
2023/06/02 02:18:58;;;;;;;10.43;2.17;;;11.50;99.90;;;;;;5079437;28;20066;-72
2023/06/02 02:21:28;;;;;;;18.77;4.00;;;11.50;99.90;;;;;;5114200;28;20096;-72
2023/06/02 02:23:54;;;;;;;17.67;3.93;;;11.50;99.90;;;;;;5114044;28;20341;-72
2023/06/02 02:26:20;;;;;;;14.90;3.40;;;11.50;99.90;;;;;;5114118;28;20792;-73
2023/06/02 02:28:47;;;;;;;17.37;2.73;;;11.50;99.90;;;;;;5114347;28;20304;-72
2023/06/02 02:31:13;;;;;;;16.13;4.00;;;11.50;99.90;;;;;;5113940;28;20282;-75
2023/06/02 02:33:39;;;;;;;12.00;2.60;;;11.50;99.90;;;;;;5114133;28;20334;-72
2023/06/02 02:36:05;;;;;;;15.40;2.83;;;11.50;99.90;;;;;;5095352;28;20051;-72
2023/06/02 02:38:31;;;;;;;16.13;3.07;;;11.50;99.90;;;;;;5078719;28;20294;-72
2023/06/02 02:40:57;;;;;;;14.93;2.60;;;11.50;99.90;;;;;;5114277;28;20342;-72
2023/06/02 02:43:22;;;;;;;13.97;3.37;;;11.50;99.90;;;;;;5113736;28;20075;-73
2023/06/02 02:45:48;;;;;;;16.43;3.47;;;11.50;99.90;;;;;;5114022;28;20055;-73
2023/06/02 02:48:14;;;;;;;18.00;3.47;;;11.50;99.90;;;;;;5095981;28;20086;-72
2023/06/02 02:50:39;;;;;;;12.70;2.90;;;11.50;99.90;;;;;;5113902;28;20039;-72
2023/06/02 02:53:05;;;;;;;15.53;3.83;;;11.50;99.90;;;;;;5062430;28;20036;-72
2023/06/02 02:55:32;;;;;;;16.97;2.73;;;11.50;99.90;;;;;;5095507;28;20046;-72
2023/06/02 02:57:59;;;;;;;12.83;2.57;;;11.50;99.90;;;;;;5095864;28;20073;-72
2023/06/02 03:00:25;;;;;;;18.60;3.80;;;11.50;99.90;;;;;;5113481;28;20320;-72
2023/06/02 03:02:51;;;;;;;11.73;2.93;;;11.50;99.90;;;;;;5113629;28;20336;-72
2023/06/02 03:05:17;;;;;;;14.00;3.27;;;11.50;99.90;;;;;;5078904;28;20360;-72
2023/06/02 03:07:44;;;;;;;14.87;3.40;;;11.50;99.90;;;;;;5114019;28;20040;-72
2023/06/02 03:10:10;;;;;;;10.83;3.00;;;11.50;99.90;;;;;;5095842;28;20396;-72
2023/06/02 03:12:36;;;;;;;12.13;2.50;;;11.50;99.90;;;;;;5113319;28;20281;-72
2023/06/02 03:15:02;;;;;;;13.67;2.73;;;11.50;99.90;;;;;;5113606;28;20287;-72
2023/06/02 03:17:29;;;;;;;11.53;2.67;;;11.50;99.90;;;;;;5112972;28;20514;-72
2023/06/02 03:19:55;;;;;;;14.10;3.20;;;11.60;99.90;;;;;;5095522;28;20711;-72
2023/06/02 03:22:21;;;;;;;17.73;3.10;;;11.50;99.90;;;;;;5113173;28;20321;-73
2023/06/02 03:24:48;;;;;;;12.07;3.13;;;11.50;99.90;;;;;;5078561;28;20293;-72
2023/06/02 03:27:15;;;;;;;14.33;3.63;;;11.50;99.90;;;;;;5078275;28;20369;-72
2023/06/02 03:29:42;;;;;;;12.87;3.63;;;11.50;99.90;;;;;;5113252;28;20332;-73
2023/06/02 03:32:12;;;;;;;17.37;3.50;;;11.60;99.90;;;;;;5095453;28;20815;-72
2023/06/02 03:34:39;;;;;;;14.87;3.10;;;11.60;99.90;;;;;;5113130;28;20357;-73
2023/06/02 03:37:06;;;;;;;14.70;2.63;;;11.50;99.90;;;;;;5113314;28;20736;-72
2023/06/02 03:39:32;;;;;;;22.83;3.50;;;11.50;99.90;;;;;;5095129;28;20300;-72
2023/06/02 03:41:57;;;;;;;14.10;3.67;;;11.50;99.90;;;;;;5113347;28;20366;-72
2023/06/02 03:44:23;;;;;;;14.93;2.97;;;11.50;99.90;;;;;;5112968;28;20043;-72
2023/06/02 03:46:49;;;;;;;16.33;2.80;;;11.60;99.90;;;;;;5095309;28;20051;-72
2023/06/02 03:49:14;;;;;;;14.67;2.73;;;11.60;99.90;;;;;;5082131;28;20039;-72
2023/06/02 03:51:43;;;;;;;18.73;3.20;;;11.60;99.90;;;;;;5117088;28;20048;-73
2023/06/02 03:54:09;;;;;;;14.63;2.97;;;11.60;99.90;;;;;;5117326;28;20399;-72
2023/06/02 03:56:35;;;;;;;18.30;3.20;;;11.60;99.90;;;;;;5117100;28;20293;-73
2023/06/02 03:59:00;;;;;;;13.40;2.90;;;11.60;99.90;;;;;;5117199;28;20367;-72
2023/06/02 04:01:27;;;;;;;19.13;3.77;;;11.60;99.90;;;;;;5098931;28;20079;-73
2023/06/02 04:03:53;;;;;;;19.43;3.10;;;11.60;99.90;;;;;;5098996;28;20494;-73
2023/06/02 04:06:18;;;;;;;18.80;3.57;;;11.60;99.90;;;;;;5098995;28;20277;-72
2023/06/02 04:08:46;;;;;;;16.60;4.03;;;11.60;99.90;;;;;;5116845;28;20499;-73
2023/06/02 04:11:12;;;;;;;16.10;3.47;;;11.60;99.90;;;;;;5117089;28;20066;-73
2023/06/02 04:13:37;;;;;;;13.30;3.53;;;11.60;99.90;;;;;;5098675;28;20407;-73
2023/06/02 04:16:03;;;;;;;17.73;3.40;;;11.60;99.90;;;;;;5116914;28;20305;-73
2023/06/02 04:18:33;;;;;;;16.70;3.47;;;11.60;99.90;;;;;;5098611;28;20044;-73
2023/06/02 04:20:59;;;;;;;18.97;3.73;;;11.60;99.90;;;;;;5116829;28;20406;-72
2023/06/02 04:23:25;;;;;;;14.83;2.83;;;11.60;99.90;;;;;;5116399;28;20308;-75
2023/06/02 04:25:51;;;;;;;19.27;3.20;;;11.60;99.90;;;;;;5065111;28;20297;-72
2023/06/02 04:28:19;;;;;;;15.47;3.27;;;11.70;99.90;;;;;;5116682;28;20051;-72
2023/06/02 04:30:45;;;;;;;13.37;3.10;;;11.70;99.90;;;;;;5081542;28;20051;-72
2023/06/02 04:33:12;;;;;;;16.40;3.50;;;11.70;99.90;;;;;;5116811;28;20771;-72
2023/06/02 04:35:37;;;;;;;14.30;4.07;;;11.70;99.90;;;;;;5116306;28;20174;-72
2023/06/02 04:38:03;;;;;;;16.93;4.13;;;11.70;99.90;;;;;;5116466;28;20317;-72
2023/06/02 04:40:29;;;;;;;20.50;4.57;;;11.70;99.90;;;;;;5098278;28;20075;-73
2023/06/02 04:42:55;;;;;;;18.43;3.57;;;11.80;99.90;;;;;;5081306;28;20467;-73
2023/06/02 04:45:20;;;;;;;15.43;3.90;;;11.80;99.90;;;;;;5098367;28;20087;-72
2023/06/02 04:47:46;;;;;;;16.80;3.90;;;11.80;99.90;;;;;;5115982;28;20075;-73
2023/06/02 04:50:15;;;;;;;20.63;3.13;;;11.80;99.90;;;;;;5116193;28;20122;-73
2023/06/02 04:52:44;;;;;;;19.90;3.30;;;11.80;99.90;;;;;;5115978;28;20278;-73
2023/06/02 04:55:11;;;;;;;19.87;3.90;;;11.90;99.90;;;;;;5116183;28;20293;-72
2023/06/02 04:57:37;;;;;;;17.47;3.40;;;11.90;99.90;;;;;;5115825;28;20760;-72
2023/06/02 05:00:08;;;;;;;14.17;3.27;;;11.90;99.90;;;;;;5115112;28;20281;-72
2023/06/02 05:02:35;;;;;;;18.60;4.40;;;11.90;99.90;;;;;;5097828;28;20302;-72
2023/06/02 05:05:02;;;;;;;23.20;4.93;;;11.80;99.90;;;;;;5097992;28;20713;-72
2023/06/02 05:07:28;;;;;;;18.43;3.60;;;11.90;99.90;;;;;;5115922;28;20285;-72
2023/06/02 05:09:54;;;;;;;18.33;4.23;;;11.90;99.90;;;;;;5115288;28;20792;-72
2023/06/02 05:12:20;;;;;;;18.73;3.87;;;11.90;99.90;;;;;;5097789;28;20295;-73
2023/06/02 05:14:46;;;;;;;12.23;3.57;;;12.00;99.90;;;;;;5097382;28;20046;-72
2023/06/02 05:17:12;;;;;;;17.63;4.20;;;12.00;99.90;;;;;;5097520;28;20289;-72
2023/06/02 05:19:42;;;;;;;17.53;3.77;;;12.00;99.90;;;;;;5115359;28;20292;-72
2023/06/02 05:22:08;;;;;;;14.37;3.50;;;12.00;99.90;;;;;;5097983;28;20052;-72
2023/06/02 05:24:33;;;;;;;18.40;3.23;;;12.00;99.90;;;;;;5085877;28;20297;-73
2023/06/02 05:26:59;;;;;;;14.20;3.07;;;12.10;99.90;;;;;;5073781;28;20056;-72
2023/06/02 05:29:25;;;;;;;17.97;3.67;;;12.00;99.90;;;;;;5074932;28;20089;-72
2023/06/02 05:31:51;;;;;;;14.30;3.27;;;12.10;99.90;;;;;;5073577;28;20041;-73
2023/06/02 05:34:16;;;;;;;13.77;3.67;;;12.10;99.90;;;;;;5074723;28;20426;-72
2023/06/02 05:36:42;;;;;;;19.53;3.67;;;12.10;99.90;;;;;;5073306;28;20056;-73
2023/06/02 05:39:08;;;;;;;19.80;4.60;;;12.10;99.90;;;;;;5074713;28;20040;-72
2023/06/02 05:41:33;;;;;;;17.37;5.20;;;12.20;99.90;;;;;;5073658;28;20044;-75
2023/06/02 05:43:59;;;;;;;20.67;3.60;;;12.20;99.90;;;;;;5074689;28;20036;-72
2023/06/02 05:46:26;;;;;;;18.20;4.33;;;12.20;99.90;;;;;;5073460;28;20475;-72
2023/06/02 05:48:51;;;;;;;14.10;3.57;;;12.20;99.90;;;;;;5074197;28;20123;-72
2023/06/02 05:51:17;;;;;;;23.03;3.57;;;12.20;99.90;;;;;;5074399;28;20287;-72
2023/06/02 05:53:43;;;;;;;16.53;4.67;;;12.20;99.90;;;;;;5074199;28;20080;-72
2023/06/02 05:56:09;;;;;;;20.93;3.70;;;12.20;99.90;;;;;;5074319;28;20508;-72
2023/06/02 05:58:38;;;;;;;19.57;3.47;;;12.20;99.90;;;;;;5073440;28;20041;-72
2023/06/02 06:01:04;;;;;;;17.07;4.07;;;12.20;99.90;;;;;;5074210;28;20143;-72
2023/06/02 06:03:30;;;;;;;19.90;3.80;;;12.30;99.90;;;;;;5072926;28;20781;-72
2023/06/02 06:05:55;;;;;;;16.70;4.40;;;12.20;99.90;;;;;;5056066;28;20275;-72
2023/06/02 06:08:21;;;;;;;20.73;4.23;;;12.30;99.90;;;;;;5074099;28;20554;-72
2023/06/02 06:10:47;;;;;;;20.57;4.00;;;12.30;99.90;;;;;;5072480;28;20048;-72
2023/06/02 06:13:13;;;;;;;16.90;4.23;;;12.40;99.90;;;;;;5073960;28;20048;-72
2023/06/02 06:15:38;;;;;;;16.10;3.57;;;12.40;99.90;;;;;;5073383;28;20044;-75
2023/06/02 06:18:04;;;;;;;21.47;6.07;;;12.50;99.90;;;;;;5072663;28;20087;-72
2023/06/02 06:20:30;;;;;;;16.07;3.70;;;12.50;99.90;;;;;;5055906;28;20048;-72
2023/06/02 06:22:56;;;;;;;21.37;3.80;;;12.50;99.90;;;;;;5073350;28;20037;-72
2023/06/02 06:25:22;;;;;;;20.43;4.60;;;12.60;99.90;;;;;;5072392;28;20508;-72
2023/06/02 06:27:47;;;;;;;23.97;4.77;;;12.70;99.90;;;;;;5072204;28;20049;-72
2023/06/02 06:30:13;;;;;;;20.60;3.80;;;12.70;99.90;;;;;;5073593;28;20132;-72
2023/06/02 06:32:39;;;;;;;20.77;4.67;;;12.80;99.90;;;;;;5073370;28;20055;-72
2023/06/02 06:35:05;;;;;;;17.73;3.90;;;12.90;99.90;;;;;;5073131;28;20044;-72
2023/06/02 06:37:31;;;;;;;19.37;3.50;;;13.00;99.90;;;;;;5072323;28;20056;-73
2023/06/02 06:39:57;;;;;;;18.13;4.83;;;13.10;99.90;;;;;;5071753;28;20382;-73
2023/06/02 06:42:23;;;;;;;23.50;4.33;;;13.10;99.90;;;;;;5072955;28;20044;-73
2023/06/02 06:44:50;;;;;;;22.67;4.53;;;13.20;99.90;;;;;;5071383;28;20044;-73
2023/06/02 06:47:16;;;;;;;17.73;3.80;;;13.20;99.90;;;;;;5055983;28;20052;-73
2023/06/02 06:49:42;;;;;;;18.00;3.93;;;13.30;99.90;;;;;;5073071;28;20334;-76
2023/06/02 06:52:08;;;;;;;23.37;5.03;;;13.30;99.90;;;;;;5073324;28;20322;-73
2023/06/02 06:54:33;;;;;;;20.40;4.17;;;13.40;99.90;;;;;;5072321;28;20064;-73
2023/06/02 06:56:59;;;;;;;20.00;4.73;;;13.40;99.90;;;;;;5072866;28;20127;-73
2023/06/02 06:59:25;;;;;;;18.33;4.70;;;13.40;99.90;;;;;;5072851;28;20074;-73
2023/06/02 07:01:50;;;;;;;15.87;4.97;;;13.50;99.90;;;;;;5072873;28;20084;-73
2023/06/02 07:04:17;;;;;;;25.60;5.13;;;13.50;99.90;;;;;;5055284;28;20174;-73
2023/06/02 07:06:43;;;;;;;20.80;4.37;;;13.50;99.90;;;;;;5072435;28;20502;-74
2023/06/02 07:09:10;;;;;;;22.70;4.73;;;13.50;99.90;;;;;;5072327;28;20282;-71
2023/06/02 07:11:36;;;;;;;21.60;4.43;;;13.50;99.90;;;;;;5054823;28;20321;-73
2023/06/02 07:14:02;;;;;;;18.47;4.70;;;13.50;99.90;;;;;;5071371;28;20322;-72
2023/06/02 07:16:28;;;;;;;20.93;4.30;;;13.60;99.90;;;;;;5072760;28;20040;-73
2023/06/02 07:18:53;;;;;;;17.43;4.93;;;13.60;99.90;;;;;;5072192;28;20423;-73
2023/06/02 07:21:19;;;;;;;19.77;4.43;;;13.70;99.90;;;;;;5071843;28;20048;-72
2023/06/02 07:23:45;;;;;;;24.17;4.80;;;13.70;99.90;;;;;;5072674;28;20055;-73
2023/06/02 07:26:11;;;;;;;26.43;4.97;;;13.70;99.90;;;;;;5094876;28;20051;-74
2023/06/02 07:28:38;;;;;;;19.03;5.10;;;13.80;99.90;;;;;;5112773;28;20503;-73
2023/06/02 07:31:04;;;;;;;17.00;4.70;;;13.90;99.90;;;;;;5112982;28;20052;-74
2023/06/02 07:33:30;;;;;;;20.93;4.47;;;14.00;99.90;;;;;;5113240;28;20330;-72
2023/06/02 07:35:56;;;;;;;18.50;4.23;;;14.20;99.90;;;;;;5112797;28;20277;-73
2023/06/02 07:38:22;;;;;;;19.53;4.93;;;14.40;99.90;;;;;;5095177;28;20476;-74
2023/06/02 07:40:48;;;;;;;17.13;4.93;;;14.70;99.90;;;;;;5112992;28;20364;-76
2023/06/02 07:43:14;;;;;;;20.17;5.23;;;15.00;99.90;;;;;;5113456;28;20405;-74
2023/06/02 07:45:39;;;;;;;18.00;4.43;;;15.20;99.90;;;;;;5113157;28;20131;-74
2023/06/02 07:48:05;;;;;;;18.43;4.17;;;15.50;99.90;;;;;;5112810;28;20596;-74
2023/06/02 07:50:31;;;;;;;21.97;5.17;;;15.60;99.90;;;;;;5113273;28;20125;-74
2023/06/02 07:52:57;;;;;;;23.10;4.00;;;15.60;99.90;;;;;;5128666;28;20112;-70
2023/06/02 07:55:24;;;;;;;16.90;4.10;;;15.70;99.90;;;;;;5113022;28;20285;-71
2023/06/02 07:57:51;;;;;;;16.23;3.90;;;15.90;99.90;;;;;;5094381;28;20534;-72
2023/06/02 08:00:18;;;;;;;16.30;4.30;;;16.10;99.90;;;;;;5113103;28;20289;-72
2023/06/02 08:02:48;;;;;;;17.77;4.00;;;16.50;99.90;;;;;;5078238;28;20313;-73
2023/06/02 08:05:15;;;;;;;19.67;4.30;;;17.00;99.90;;;;;;5094963;28;20487;-74
2023/06/02 08:07:41;;;;;;;14.00;4.03;;;17.40;99.90;;;;;;5078286;28;20304;-75
2023/06/02 08:10:08;;;;;;;17.80;4.60;;;17.30;99.90;;;;;;5112845;28;20044;-78
2023/06/02 08:12:34;;;;;;;19.07;4.30;;;17.00;99.90;;;;;;5094843;28;20059;-76
2023/06/02 08:15:00;;;;;;;15.80;4.43;;;16.70;99.90;;;;;;5077919;28;20044;-76
2023/06/02 08:17:36;;;;;;;15.40;3.67;;;16.40;99.90;;;;;;5094934;28;20083;-76
2023/06/02 08:20:03;;;;;;;18.10;4.07;;;16.20;99.90;;;;;;5112941;28;20047;-75
2023/06/02 08:22:33;;;;;;;14.97;4.03;;;16.10;99.90;;;;;;5094945;28;20096;-74
2023/06/02 08:24:59;;;;;;;16.30;4.10;;;16.10;99.90;;;;;;5112878;28;20093;-74
2023/06/02 08:27:25;;;;;;;19.57;3.80;;;16.10;99.90;;;;;;5095361;28;20066;-75
2023/06/02 08:29:51;;;;;;;16.10;3.67;;;16.20;99.90;;;;;;5112809;28;20055;-73
2023/06/02 08:32:18;;;;;;;15.30;3.93;;;16.80;99.90;;;;;;5109429;28;20395;-73
2023/06/02 08:34:50;;;;;;;14.03;3.97;;;17.00;99.90;;;;;;5095578;28;20099;-73
2023/06/02 08:37:20;;;;;;;15.93;3.80;;;17.40;99.90;;;;;;5097886;28;20118;-72
2023/06/02 08:39:48;;;;;;;19.07;4.77;;;17.80;99.90;;;;;;5116090;28;20038;-72
2023/06/02 08:42:14;;;;;;;13.40;3.70;;;18.00;99.90;;;;;;5115759;28;20055;-73
2023/06/02 08:44:41;;;;;;;15.07;5.70;;;18.40;99.90;;;;;;5097670;28;20486;-72
2023/06/02 08:47:12;;;;;;;11.60;3.77;;;18.60;99.90;;;;;;5097457;28;20082;-72
2023/06/02 08:49:48;;;;;;;17.60;3.30;;;18.70;99.90;;;;;;5097707;28;20048;-72
2023/06/02 08:52:23;;;;;;;13.87;3.80;;;18.80;99.90;;;;;;5114329;28;20507;-73
2023/06/02 08:54:50;;;;;;;11.40;2.80;;;18.90;99.90;;;;;;5113844;28;20048;-73
2023/06/02 08:57:16;;;;;;;13.53;3.97;;;18.70;99.90;;;;;;5115384;28;20777;-72
2023/06/02 08:59:45;;;;;;;12.93;3.10;;;18.70;99.90;;;;;;5080953;28;20038;-73
2023/06/02 09:02:11;;;;;;;16.90;3.37;;;18.50;99.90;;;;;;5080371;28;20560;-73
2023/06/02 09:04:37;;;;;;;13.30;3.30;;;18.20;99.90;;;;;;5097014;28;20036;-73
2023/06/02 09:07:11;;;;;;;12.60;3.37;;;18.20;99.90;;;;;;5115375;28;20069;-73
2023/06/02 09:09:42;;;;;;;14.63;3.50;;;18.50;99.90;;;;;;5115691;28;20131;-73
2023/06/02 09:12:08;;;;;;;9.40;2.93;;;18.50;99.90;;;;;;5094607;28;20119;-76
2023/06/02 09:14:39;;;;;;;9.63;3.10;;;18.60;99.90;;;;;;5097519;28;20050;-75
2023/06/02 09:17:27;;;;;;;10.30;3.43;;;18.60;99.90;;;;;;5115526;28;20055;-75
2023/06/02 09:19:54;;;;;;;12.60;2.70;;;18.60;99.90;;;;;;5098180;28;20047;-74
2023/06/02 09:22:20;;;;;;;8.50;2.63;;;18.60;99.90;;;;;;5097620;28;20079;-74
2023/06/02 09:24:46;;;;;;;14.30;3.70;;;18.60;99.90;;;;;;5115652;28;20471;-74
2023/06/02 09:27:13;;;;;;;11.17;3.13;;;18.70;99.90;;;;;;5115211;28;20549;-75
2023/06/02 09:29:40;;;;;;;13.17;3.00;;;18.80;99.90;;;;;;5115864;28;20044;-73
2023/06/02 09:32:17;;;;;;;9.30;2.80;;;18.60;99.90;;;;;;5097207;28;20051;-75
2023/06/02 09:34:45;;;;;;;9.80;3.80;;;18.60;99.90;;;;;;5115688;28;20043;-74
2023/06/02 09:37:12;;;;;;;7.67;2.30;;;18.60;99.90;;;;;;5097364;28;20059;-73
2023/06/02 09:39:43;;;;;;;7.90;2.30;;;18.60;99.90;;;;;;5115455;28;20540;-73
2023/06/02 09:42:21;;;;;;;11.90;2.30;;;18.50;99.90;;;;;;5080303;28;20052;-73
2023/06/02 09:45:07;;;;;;;10.40;2.30;;;18.40;99.90;;;;;;5080480;28;20040;-73
2023/06/02 09:47:38;;;;;;;8.20;2.20;;;18.30;99.70;;;;;;5097306;28;20483;-73
2023/06/02 09:50:05;;;;;;;8.57;2.17;;;18.20;96.60;;;;;;5096858;28;20048;-73
2023/06/02 09:52:31;;;;;;;8.77;2.33;;;18.20;99.00;;;;;;5115216;28;20047;-74
2023/06/02 09:54:58;;;;;;;12.37;2.30;;;18.20;98.20;;;;;;5097269;28;20039;-71
2023/06/02 09:57:24;;;;;;;6.53;1.93;;;18.20;98.00;;;;;;5115080;28;20372;-79
2023/06/02 09:59:51;;;;;;;9.40;2.27;;;18.30;98.30;;;;;;5115173;28;20047;-75
2023/06/02 10:02:17;;;;;;;6.27;2.50;;;18.30;97.50;;;;;;5096863;28;20142;-75
2023/06/02 10:04:43;;;;;;;7.43;2.33;;;18.30;98.10;;;;;;5096493;28;20055;-74
2023/06/02 10:07:30;;;;;;;6.93;2.00;;;18.30;98.40;;;;;;5096679;28;20047;-75
2023/06/02 10:10:16;;;;;;;10.73;2.07;;;18.40;98.10;;;;;;5131083;27;20055;-74
2023/06/02 10:12:57;;;;;;;5.53;1.63;;;18.40;96.70;;;;;;5114849;28;20104;-75
2023/06/02 10:15:46;;;;;;;6.27;2.17;;;18.30;96.40;;;;;;5114528;28;20458;-74
2023/06/02 10:18:51;;;;;;;6.90;2.00;;;18.40;96.70;;;;;;5096688;28;20054;-75
2023/06/02 10:21:40;;;;;;;8.53;1.90;;;18.40;96.00;;;;;;5065717;28;20047;-74
2023/06/02 10:24:29;;;;;;;8.53;2.30;;;18.30;93.10;;;;;;5114296;28;20051;-75
2023/06/02 10:27:17;;;;;;;7.03;2.10;;;18.20;95.10;;;;;;5114700;28;20054;-74
2023/06/02 10:29:45;;;;;;;5.80;1.50;;;18.20;95.00;;;;;;5114378;28;20047;-78
2023/06/02 10:32:22;;;;;;;9.40;2.40;;;18.20;95.60;;;;;;5095998;28;20055;-75
2023/06/02 10:34:51;;;;;;;4.80;1.63;;;18.20;93.60;;;;;;5079336;28;20090;-75
2023/06/02 10:37:19;;;;;;;11.83;2.13;;;18.20;91.90;;;;;;5114081;28;20399;-76
2023/06/02 10:39:45;;;;;;;8.50;1.73;;;18.20;93.10;;;;;;5096477;28;20163;-76
2023/06/02 10:42:13;;;;;;;7.03;2.10;;;18.20;93.90;;;;;;5095734;28;20540;-78
2023/06/02 10:44:38;;;;;;;6.30;1.73;;;18.20;94.80;;;;;;5114180;28;20046;-76
2023/06/02 10:47:19;;;;;;;5.03;2.10;;;18.30;94.00;;;;;;5114091;28;20043;-76
2023/06/02 10:49:54;;;;;;;5.00;1.60;;;18.40;90.20;;;;;;5079231;28;20090;-77
2023/06/02 10:52:21;;;;;;;5.97;1.80;;;18.30;90.20;;;;;;5095787;28;20054;-77
2023/06/02 10:55:10;;;;;;;8.77;1.93;;;18.20;91.20;;;;;;5114099;28;20372;-76
2023/06/02 10:57:58;;;;;;;4.73;1.53;;;18.30;91.50;;;;;;5067385;28;20138;-75
2023/06/02 11:00:35;;;;;;;5.60;1.70;;;18.30;90.60;;;;;;5095740;28;20147;-75
2023/06/02 11:03:17;;;;;;;4.93;1.77;;;18.20;90.70;;;;;;5096034;28;20047;-72
2023/06/02 11:05:44;;;;;;;7.40;1.70;;;18.20;91.00;;;;;;5077764;28;20052;-75
2023/06/02 11:08:14;;;;;;;5.37;1.73;;;18.10;88.10;;;;;;5113622;28;20108;-74
2023/06/02 11:10:45;;;;;;;5.57;1.70;;;18.10;86.60;;;;;;5113693;28;20105;-74
2023/06/02 11:13:12;;;;;;;5.47;1.83;;;18.10;88.20;;;;;;5113691;28;20067;-74
2023/06/02 11:15:38;;;;;;;5.00;1.50;;;18.00;87.40;;;;;;5095682;28;20475;-74
2023/06/02 11:18:22;;;;;;;4.43;1.70;;;18.10;76.70;;;;;;5113883;28;20058;-74
2023/06/02 11:20:52;;;;;;;7.03;1.60;;;18.10;71.70;;;;;;5113532;28;20056;-75
2023/06/02 11:23:18;;;;;;;6.97;2.00;;;18.10;74.10;;;;;;5113176;28;20066;-75
2023/06/02 11:25:48;;;;;;;5.60;1.60;;;18.20;72.50;;;;;;5095089;28;20436;-75
2023/06/02 11:28:22;;;;;;;4.67;1.50;;;18.10;71.60;;;;;;5095226;28;20043;-77
2023/06/02 11:31:04;;;;;;;5.28;2.03;;;18.10;71.60;;;;;;5095615;28;20052;-75
2023/06/02 11:33:33;;;;;;;5.07;1.43;;;18.20;69.10;;;;;;5112876;28;20551;-75
2023/06/02 11:35:59;;;;;;;5.77;1.37;;;18.20;67.00;;;;;;5113343;28;20558;-75
2023/06/02 11:38:32;;;;;;;3.00;1.50;;;18.20;62.90;;;;;;5095107;28;20058;-75
2023/06/02 11:41:15;;;;;;;3.93;1.43;;;18.10;62.20;;;;;;5095682;28;20051;-74
2023/06/02 11:43:42;;;;;;;6.63;1.53;;;18.10;59.40;;;;;;5095088;28;20506;-75
2023/06/02 11:46:09;;;;;;;4.87;1.37;;;18.10;58.50;;;;;;5113349;28;20051;-75
2023/06/02 11:48:38;;;;;;;9.23;1.43;;;18.10;59.20;;;;;;5113109;28;20126;-75
2023/06/02 11:51:05;;;;;;;6.33;1.60;;;18.20;59.60;;;;;;5095370;28;20054;-75
2023/06/02 11:53:31;;;;;;;4.77;1.53;;;18.20;59.10;;;;;;5094949;28;20470;-75
2023/06/02 11:55:57;;;;;;;3.70;1.63;;;18.20;58.70;;;;;;5078424;28;20055;-72
2023/06/02 11:58:27;;;;;;;3.53;1.40;;;18.20;57.20;;;;;;5094938;28;20047;-72
2023/06/02 12:01:17;;;;;;;4.87;1.70;;;18.20;57.20;;;;;;5113448;28;20145;-70
2023/06/02 12:04:01;;;;;;;5.30;2.07;;;18.20;59.00;;;;;;5113146;28;20093;-70
2023/06/02 12:06:27;;;;;;;7.80;1.90;;;18.20;67.70;;;;;;5112534;28;20499;-71
2023/06/02 12:08:53;;;;;;;6.03;1.40;;;18.20;68.60;;;;;;5114436;28;20560;-71
2023/06/02 12:11:22;;;;;;;5.30;1.67;;;18.20;64.10;;;;;;5116917;28;20044;-71
2023/06/02 12:14:02;;;;;;;7.73;1.93;;;18.20;70.90;;;;;;5117283;28;20044;-71
2023/06/02 12:16:29;;;;;;;7.67;2.20;;;18.20;70.80;;;;;;5117022;28;20395;-71
2023/06/02 12:19:12;;;;;;;5.57;2.17;;;18.20;77.20;;;;;;5116939;28;20130;-70
2023/06/02 12:21:40;;;;;;;8.23;2.47;;;18.20;88.20;;;;;;5116586;28;20043;-71
2023/06/02 12:24:07;;;;;;;7.70;2.27;;;18.10;86.90;;;;;;5116461;28;20047;-75
2023/06/02 12:26:44;;;;;;;7.63;1.90;;;18.10;90.50;;;;;;5116529;28;20043;-74
2023/06/02 12:29:10;;;;;;;5.43;1.90;;;18.20;92.80;;;;;;5082106;28;20044;-74
2023/06/02 12:31:38;;;;;;;7.00;2.20;;;18.20;92.20;;;;;;5116437;28;20035;-74
2023/06/02 12:34:07;;;;;;;8.27;1.63;;;18.20;92.70;;;;;;5098924;28;20051;-74
2023/06/02 12:36:33;;;;;;;6.17;2.23;;;18.10;94.30;;;;;;5098426;28;20043;-73
2023/06/02 12:39:00;;;;;;;8.67;2.30;;;18.30;95.40;;;;;;5116580;28;20181;-74
2023/06/02 12:41:26;;;;;;;8.40;2.00;;;18.40;95.10;;;;;;5112769;28;20055;-76
2023/06/02 12:43:52;;;;;;;10.10;2.00;;;18.50;95.00;;;;;;5100634;28;20122;-75